Ludowici, GA (31316)

4:06 AM EST on March 06, 2015 (GMT -0500)
Elim / Davenport Acres - Long County | Change Station
CLOSE
Current Station
Personal Weather Station
Location: Ludowici, GA
Elevation: 89 ft
Nearby Weather Stations
Active Advisory: Freeze Warning

Elev 89 ft 31.79 °N, 81.69 °W | Updated 0 second ago

Overcast
Overcast
47.4 °F
Feels Like 41 °F
N
15.0
Wind Variable Wind from ENE
Gusts 15.0 mph

Today
High -- | Low -- °F
--% Chance of Precip.
Yesterday
High -- | Low -- °F
Precip. -- in
6:48 AM 6:28 PM
Full, 100% visible
Pressure 30.24 in
Visibility 10.0 miles
Clouds Overcast 1200 ft
Windchill 41 °F
Dew Point 45 °F
Humidity 90%
Rainfall in
Snow Depth Not available.
UV 0 out of 12
Pollen 9.60 out of 12
Air Quality Not available.
Flu Activity Not available.
METAR KJES 060835Z AUTO 35004KT 10SM OVC012 10/08 A3024 RMK AO2

More Conditions Fewer Conditions

Pressure 30.24 in
Visibility 10.0 miles
Clouds Overcast 1200 ft
Windchill 41 °F
Dew Point 45 °F
Humidity 90%
Rainfall in
Snow Depth Not available.
UV 0 out of 12
Pollen 9.60 out of 12
Air Quality Not available.
Flu Activity Not available.
METAR KJES 060835Z AUTO 35004KT 10SM OVC012 10/08 A3024 RMK AO2

More Conditions Fewer Conditions

10-Day Weather Forecast

Almanac

Astronomy

Mar. 06, 2015 Rise Set
Actual Time
Civil Twilight
Nautical Twilight
Astronomical Twilight
Moon
Length of Visible Light
Length of Day
Tomorrow will be .
, % of the Moon is Illuminated

Today's Extremes

State Highs State Lows

Community

WunderPhotos

Upload Photos

1,803,212 photos uploaded!

WunderBlogs® & News

Nearby

Air Quality

  Air Quality AQ Index Pollutant
Not available.

Snow Depth

Station Depth Elevation

Earthquake Activity

City Distance Mag. Time & Date
Minimum magnitude displayed is 2.5.

Coastal Water Temperatures

Place Temperature

Nearby Weather Stations

Freeze Warning
Statement as of 3:42 AM EST on March 06, 2015

... Freeze warning in effect from 2 am to 9 am EST Saturday...

The National Weather Service in Charleston has issued a freeze
warning... which is in effect from 2 am to 9 am EST Saturday. The
freeze watch is no longer in effect.

* Temperatures... lower 30s.

* Freeze duration... 2 to 4 hours with scattered frost.

* Freeze impacts... freezing temperatures could kill sensitive
vegetation and damage unprotected outdoor plumbing.


Precautionary/preparedness actions...

Be prepared to protect sensitive outdoor vegetation and cover
unprotected outdoor plumbing.